Terminal Aerodrome Forecast
Issued by NWS

Home | Current Version | Previous Version | Text Only | Print | Product List | Glossary On
Versions: 1 2 3 4 5 6 7 8 9 10 11 12 13 14 15 16 17 18 19 20 21 22 23 24 25 26 27 28 29 30
000
FTUS45 KLKN 222320
TAFELY
TAF
KELY 222320Z 2300/2324 05010KT P6SM VCTS SCT045 BKN060CB
      TEMPO 2300/2302 VRB15G32KT -TSRA BKN040CB
     FM230200 VRB06KT P6SM -SHRA BKN050 OVC070
     FM232000 32010KT P6SM VCTS OVC070CB=

USA.gov is the U.S. government's official web portal to all federal, state and local government web resources and services.